Terminal Aerodrome Forecast
Issued by NWS

Home | Current Version | Previous Version | Text Only | Print | Product List | Glossary On
Versions: 1 2 3 4 5 6 7 8 9 10 11 12 13 14 15 16 17 18
000
FTUS42 KTBW 261100
TAFPIE
TAF
KPIE 261133Z 2612/2712 30020G30KT P6SM VCSH SCT020 OVC040
     FM261500 30022G32KT P6SM FEW020 BKN035
     FM270000 31015G22KT P6SM FEW035=

USA.gov is the U.S. government's official web portal to all federal, state and local government web resources and services.